createdAt,value
2022-08-27T10:34:50.360Z,0.00
2022-08-27T10:36:27.877Z,292.50
2022-08-27T10:37:05.333Z,270.00
2022-08-27T10:37:42.602Z,191.25
2022-08-27T10:38:17.363Z,168.75
2022-08-27T10:38:52.125Z,112.50
2022-08-27T10:39:26.871Z,118.12
2022-08-27T10:40:01.722Z,101.25
2022-08-27T10:40:36.591Z,84.38
2022-08-27T10:41:11.352Z,61.88
2022-08-27T10:41:46.101Z,50.62
2022-08-27T10:42:21.063Z,45.00
2022-08-27T10:42:57.614Z,33.75
2022-08-27T10:43:32.710Z,28.12
2022-08-27T10:44:07.445Z,28.12
2022-08-27T10:44:42.216Z,28.12
2022-08-27T10:45:30.727Z,22.50
2022-08-27T10:45:59.294Z,22.50
2022-08-27T10:46:34.758Z,16.88
2022-08-27T10:47:09.815Z,16.88
2022-08-27T10:47:44.642Z,22.50
2022-08-27T10:48:19.427Z,22.50
2022-08-27T10:48:54.212Z,22.50
2022-08-27T10:49:29.346Z,22.50
2022-08-27T10:50:04.107Z,22.50
2022-08-27T10:50:38.940Z,22.50
2022-08-27T10:51:13.686Z,28.12
2022-08-27T10:51:48.468Z,28.12
2022-08-27T10:52:23.267Z,45.00
2022-08-27T10:52:58.016Z,73.12
2022-08-27T10:53:32.758Z,84.38
2022-08-27T10:54:07.528Z,95.62
2022-08-27T10:54:42.348Z,90.00
2022-08-27T10:55:17.122Z,78.75
2022-08-27T10:55:51.881Z,61.88
2022-08-27T10:56:26.641Z,50.62
2022-08-27T10:57:26.133Z,39.38
2022-08-27T10:57:55.531Z,33.75
2022-08-27T10:58:20.762Z,28.12
2022-08-27T10:58:55.648Z,28.12
2022-08-27T10:59:30.475Z,28.12
2022-08-27T11:00:05.270Z,28.12
2022-08-27T11:00:40.164Z,28.12
2022-08-27T11:01:15.010Z,33.75
2022-08-27T11:01:49.811Z,39.38
2022-08-27T11:02:24.656Z,50.62
2022-08-27T11:02:59.395Z,50.62
2022-08-27T11:03:34.794Z,56.25
2022-08-27T11:04:09.556Z,101.25
2022-08-27T11:04:44.725Z,118.12
2022-08-27T11:05:19.496Z,106.88
2022-08-27T11:05:54.298Z,90.00
2022-08-27T11:06:29.067Z,73.12
2022-08-27T11:07:03.800Z,56.25
2022-08-27T11:07:38.717Z,50.62
2022-08-27T11:08:13.516Z,39.38
2022-08-27T11:08:48.357Z,33.75
2022-08-27T11:09:23.135Z,28.12
2022-08-27T11:09:57.888Z,28.12
2022-08-27T11:10:32.640Z,22.50
2022-08-27T11:11:35.118Z,22.50
2022-08-27T11:12:26.779Z,22.50
2022-08-27T11:13:01.560Z,22.50
2022-08-27T11:13:36.309Z,22.50
2022-08-27T11:14:11.140Z,28.12
2022-08-27T11:14:45.993Z,28.12
2022-08-27T11:15:20.791Z,28.12
2022-08-27T11:15:55.589Z,33.75
2022-08-27T11:16:30.535Z,45.00
2022-08-27T11:17:05.760Z,45.00
2022-08-27T11:17:40.561Z,39.38
2022-08-27T11:18:15.343Z,28.12
2022-08-27T11:18:50.133Z,22.50
2022-08-27T11:19:24.919Z,22.50
2022-08-27T11:19:59.858Z,16.88
2022-08-27T11:20:34.783Z,22.50
2022-08-27T11:21:10.527Z,22.50
2022-08-27T11:21:45.315Z,28.12
2022-08-27T11:22:26.331Z,28.12
2022-08-27T11:22:59.939Z,22.50
2022-08-27T11:23:34.731Z,22.50
2022-08-27T11:24:09.830Z,28.12
2022-08-27T11:24:44.586Z,28.12
2022-08-27T11:25:19.948Z,28.12
2022-08-27T11:25:54.770Z,28.12
2022-08-27T11:26:34.368Z,22.50
2022-08-27T11:27:09.221Z,22.50
2022-08-27T11:27:44.398Z,22.50
2022-08-27T11:28:19.158Z,22.50
2022-08-27T11:28:58.803Z,22.50
2022-08-27T11:29:33.594Z,22.50
2022-08-27T11:30:09.528Z,22.50
2022-08-27T11:30:44.311Z,22.50
2022-08-27T11:31:19.880Z,28.12
2022-08-27T11:31:54.741Z,28.12
2022-08-27T11:32:29.510Z,28.12
2022-08-27T11:33:04.343Z,22.50
2022-08-27T11:33:42.725Z,28.12
2022-08-27T11:34:18.790Z,28.12
2022-08-27T11:34:53.641Z,22.50
2022-08-27T11:35:28.406Z,22.50
2022-08-27T11:36:04.816Z,22.50
2022-08-27T11:36:39.557Z,22.50
2022-08-27T11:37:14.302Z,22.50
2022-08-27T11:37:49.254Z,22.50
2022-08-27T11:38:24.103Z,16.88
2022-08-27T11:38:58.864Z,22.50
2022-08-27T11:39:33.674Z,22.50
2022-08-27T11:40:08.512Z,16.88
2022-08-27T11:40:43.375Z,16.88
2022-08-27T11:41:18.115Z,16.88
2022-08-27T11:41:52.876Z,16.88
2022-08-27T11:42:27.637Z,22.50
2022-08-27T11:43:02.432Z,22.50
2022-08-27T11:43:37.194Z,22.50
2022-08-27T11:44:11.945Z,22.50
2022-08-27T11:44:46.780Z,22.50
2022-08-27T11:45:21.576Z,22.50
2022-08-27T11:45:56.327Z,22.50
2022-08-27T11:46:31.258Z,22.50
2022-08-27T11:47:06.483Z,22.50
2022-08-27T11:47:41.287Z,28.12
2022-08-27T11:48:16.110Z,22.50
2022-08-27T11:48:50.849Z,22.50
2022-08-27T11:49:29.740Z,28.12
2022-08-27T11:50:04.557Z,22.50
2022-08-27T11:50:39.331Z,22.50
2022-08-27T11:51:14.150Z,22.50
2022-08-27T11:51:50.783Z,28.12
2022-08-27T11:52:25.623Z,28.12
2022-08-27T11:53:00.372Z,28.12
2022-08-27T11:53:35.180Z,28.12
2022-08-27T11:54:14.812Z,28.12
2022-08-27T11:54:49.613Z,28.12
2022-08-27T11:55:24.398Z,22.50
2022-08-27T11:55:59.146Z,22.50
2022-08-27T11:56:33.882Z,22.50
2022-08-27T11:57:08.634Z,22.50
2022-08-27T11:57:43.434Z,16.88
2022-08-27T11:58:18.232Z,16.88
2022-08-27T11:58:53.757Z,16.88
2022-08-27T11:59:28.563Z,16.88
2022-08-27T12:00:03.385Z,16.88
2022-08-27T12:00:38.166Z,16.88
2022-08-27T12:01:12.930Z,16.88
2022-08-27T12:01:47.717Z,22.50
2022-08-27T12:02:22.478Z,22.50
2022-08-27T12:02:57.748Z,16.88
2022-08-27T12:03:32.611Z,16.88
2022-08-27T12:04:10.295Z,16.88
2022-08-27T12:04:45.114Z,16.88
2022-08-27T12:05:26.427Z,11.25
2022-08-27T12:06:01.627Z,11.25
2022-08-27T12:06:36.397Z,11.25
2022-08-27T12:07:11.950Z,11.25
2022-08-27T12:07:46.800Z,11.25
2022-08-27T12:08:21.572Z,11.25
2022-08-27T12:08:57.169Z,11.25
2022-08-27T12:09:31.952Z,11.25
2022-08-27T12:10:06.788Z,11.25
2022-08-27T12:10:42.411Z,11.25
2022-08-27T12:11:17.228Z,11.25
2022-08-27T12:11:55.982Z,11.25
2022-08-27T12:12:31.350Z,11.25
2022-08-27T12:13:06.141Z,11.25
2022-08-27T12:13:40.903Z,11.25
2022-08-27T12:14:15.657Z,16.88
2022-08-27T12:14:50.436Z,16.88
2022-08-27T12:15:27.589Z,16.88
2022-08-27T12:16:05.250Z,16.88
2022-08-27T12:16:40.049Z,22.50
2022-08-27T12:17:14.825Z,22.50
2022-08-27T12:17:49.622Z,28.12
2022-08-27T12:18:24.407Z,33.75
2022-08-27T12:18:59.195Z,33.75
2022-08-27T12:19:33.984Z,39.38
2022-08-27T12:20:08.849Z,39.38
2022-08-27T12:20:43.626Z,33.75
2022-08-27T12:21:18.358Z,28.12
2022-08-27T12:21:53.157Z,28.12
2022-08-27T12:22:27.896Z,28.12
2022-08-27T12:23:02.635Z,28.12
2022-08-27T12:23:37.374Z,22.50
2022-08-27T12:24:12.112Z,22.50
2022-08-27T12:24:46.887Z,22.50
2022-08-27T12:25:21.678Z,22.50
2022-08-27T12:25:56.536Z,11.25
2022-08-27T12:26:31.358Z,11.25
2022-08-27T12:27:06.126Z,11.25
2022-08-27T12:27:40.878Z,11.25
2022-08-27T12:28:15.619Z,11.25
2022-08-27T12:28:50.370Z,11.25
2022-08-27T12:29:27.822Z,16.88
2022-08-27T12:30:02.788Z,11.25
2022-08-27T12:30:37.625Z,11.25
2022-08-27T12:31:12.371Z,11.25
2022-08-27T12:31:47.226Z,11.25
2022-08-27T12:32:21.949Z,11.25
2022-08-27T12:32:56.695Z,11.25
2022-08-27T12:33:31.483Z,11.25
2022-08-27T12:34:06.279Z,5.62
2022-08-27T12:34:41.042Z,5.62
2022-08-27T12:35:17.461Z,5.62
2022-08-27T12:35:52.533Z,5.62
2022-08-27T12:36:28.076Z,5.62
2022-08-27T12:37:04.259Z,11.25
2022-08-27T12:37:42.285Z,11.25
2022-08-27T12:38:17.892Z,11.25
2022-08-27T12:38:53.012Z,11.25
2022-08-27T12:39:27.773Z,5.62
2022-08-27T12:40:03.537Z,5.62
2022-08-27T12:40:38.387Z,5.62
2022-08-27T12:41:14.976Z,5.62
2022-08-27T12:41:52.634Z,5.62
2022-08-27T12:42:27.396Z,5.62
2022-08-27T12:43:02.144Z,5.62
2022-08-27T12:43:36.885Z,11.25
2022-08-27T12:44:11.627Z,11.25
2022-08-27T12:44:46.378Z,11.25
2022-08-27T12:45:21.130Z,11.25
2022-08-27T12:45:55.865Z,5.62
2022-08-27T12:46:30.709Z,5.62
2022-08-27T12:47:05.648Z,11.25
2022-08-27T12:47:40.433Z,11.25
2022-08-27T12:48:17.567Z,11.25
2022-08-27T12:48:52.307Z,11.25
2022-08-27T12:49:39.080Z,11.25
2022-08-27T12:50:06.757Z,11.25
2022-08-27T12:50:41.507Z,11.25
2022-08-27T12:51:16.241Z,11.25
2022-08-27T12:51:50.986Z,11.25
2022-08-27T12:52:25.721Z,11.25
2022-08-27T12:53:00.469Z,11.25
2022-08-27T12:53:35.298Z,5.62
2022-08-27T12:54:10.020Z,11.25
2022-08-27T12:54:44.778Z,11.25
2022-08-27T12:55:19.530Z,5.62
2022-08-27T12:55:54.297Z,5.62
2022-08-27T12:56:29.023Z,5.62
2022-08-27T12:57:03.762Z,5.62
2022-08-27T12:57:38.481Z,5.62
2022-08-27T12:58:15.657Z,5.62
2022-08-27T12:58:50.643Z,5.62
2022-08-27T12:59:25.382Z,5.62
2022-08-27T13:00:00.141Z,5.62
2022-08-27T13:00:34.913Z,5.62
2022-08-27T13:01:09.845Z,5.62
2022-08-27T13:01:44.720Z,5.62
2022-08-27T13:02:19.484Z,5.62
2022-08-27T13:02:54.229Z,5.62
2022-08-27T13:03:28.955Z,5.62
2022-08-27T13:04:03.701Z,5.62
2022-08-27T13:04:38.434Z,5.62
2022-08-27T13:05:13.185Z,5.62
2022-08-27T13:05:47.922Z,5.62
2022-08-27T13:06:22.656Z,5.62
2022-08-27T13:06:57.386Z,5.62
2022-08-27T13:07:33.074Z,5.62
2022-08-27T13:08:11.853Z,5.62
2022-08-27T13:08:46.695Z,5.62
2022-08-27T13:09:25.177Z,5.62
2022-08-27T13:09:59.907Z,5.62
2022-08-27T13:10:34.851Z,5.62
2022-08-27T13:11:12.614Z,5.62
2022-08-27T13:11:49.207Z,5.62
2022-08-27T13:12:23.948Z,5.62
2022-08-27T13:12:58.680Z,11.25
2022-08-27T13:13:33.410Z,11.25
2022-08-27T13:14:10.408Z,11.25
2022-08-27T13:14:48.967Z,11.25
2022-08-27T13:15:24.770Z,11.25
2022-08-27T13:15:59.561Z,11.25
2022-08-27T13:16:37.072Z,11.25
2022-08-27T13:17:13.911Z,11.25
2022-08-27T13:17:49.238Z,11.25
2022-08-27T13:18:23.972Z,11.25
2022-08-27T13:19:03.575Z,5.62
2022-08-27T13:19:39.253Z,5.62
2022-08-27T13:20:14.002Z,5.62
2022-08-27T13:20:53.039Z,5.62
2022-08-27T13:21:28.167Z,5.62
2022-08-27T13:22:02.903Z,5.62
2022-08-27T13:22:37.653Z,11.25
2022-08-27T13:23:12.394Z,11.25
2022-08-27T13:23:47.313Z,11.25
2022-08-27T13:24:22.053Z,11.25
2022-08-27T13:24:56.794Z,11.25
2022-08-27T13:25:31.554Z,11.25
2022-08-27T13:26:06.334Z,11.25
2022-08-27T13:26:41.136Z,11.25
2022-08-27T13:27:15.926Z,11.25
2022-08-27T13:27:50.692Z,11.25
2022-08-27T13:28:25.647Z,5.62
2022-08-27T13:29:03.553Z,5.62
2022-08-27T13:29:38.626Z,5.62
2022-08-27T13:30:26.876Z,5.62
2022-08-27T13:30:53.018Z,5.62
2022-08-27T13:31:27.848Z,5.62
2022-08-27T13:32:02.586Z,5.62
2022-08-27T13:32:37.337Z,5.62
2022-08-27T13:33:12.079Z,5.62
2022-08-27T13:33:46.868Z,5.62
2022-08-27T13:34:21.810Z,5.62
2022-08-27T13:34:56.598Z,5.62
2022-08-27T13:35:31.348Z,5.62
2022-08-27T13:36:06.360Z,5.62
2022-08-27T13:36:41.110Z,5.62
2022-08-27T13:37:15.930Z,5.62
2022-08-27T13:37:50.692Z,5.62
2022-08-27T13:38:25.458Z,5.62
2022-08-27T13:39:00.214Z,5.62
2022-08-27T13:39:35.259Z,5.62
2022-08-27T13:40:10.075Z,5.62
2022-08-27T13:40:44.810Z,5.62
2022-08-27T13:41:19.645Z,5.62
2022-08-27T13:41:54.474Z,5.62
2022-08-27T13:42:31.611Z,5.62
2022-08-27T13:43:08.644Z,5.62
2022-08-27T13:43:47.814Z,5.62
2022-08-27T13:44:22.605Z,5.62
2022-08-27T13:44:57.515Z,5.62
2022-08-27T13:45:32.360Z,5.62
2022-08-27T13:46:08.162Z,5.62
2022-08-27T13:46:43.166Z,5.62
2022-08-27T13:47:18.080Z,5.62
2022-08-27T13:47:53.002Z,5.62
2022-08-27T13:48:27.800Z,5.62
2022-08-27T13:49:02.768Z,5.62
2022-08-27T13:49:40.172Z,5.62
2022-08-27T13:50:15.477Z,11.25
2022-08-27T13:50:50.322Z,11.25
2022-08-27T13:51:25.216Z,11.25
2022-08-27T13:52:00.146Z,11.25
2022-08-27T13:52:35.049Z,11.25
2022-08-27T13:53:11.926Z,11.25
2022-08-27T13:53:47.141Z,11.25
2022-08-27T13:54:21.909Z,11.25
2022-08-27T13:54:57.052Z,11.25
2022-08-27T13:55:33.635Z,11.25
2022-08-27T13:56:08.601Z,11.25
2022-08-27T13:56:43.594Z,11.25
2022-08-27T13:57:21.427Z,11.25
2022-08-27T13:57:56.310Z,11.25
2022-08-27T13:58:31.112Z,11.25
2022-08-27T13:59:05.930Z,11.25
2022-08-27T13:59:43.104Z,11.25
2022-08-27T14:00:18.310Z,11.25
2022-08-27T14:00:53.139Z,11.25
2022-08-27T14:01:32.828Z,11.25
2022-08-27T14:02:08.153Z,11.25
2022-08-27T14:02:54.176Z,11.25
2022-08-27T14:03:23.593Z,11.25
2022-08-27T14:03:58.374Z,11.25
2022-08-27T14:04:33.329Z,11.25
2022-08-27T14:05:08.240Z,5.62
2022-08-27T14:05:43.143Z,5.62
2022-08-27T14:06:23.211Z,5.62
2022-08-27T14:06:58.042Z,5.62
2022-08-27T14:07:32.937Z,5.62
2022-08-27T14:08:08.159Z,5.62
2022-08-27T14:08:43.108Z,5.62
2022-08-27T14:09:17.984Z,5.62
2022-08-27T14:09:54.372Z,5.62
2022-08-27T14:10:30.195Z,5.62
2022-08-27T14:11:05.439Z,5.62
2022-08-27T14:11:40.175Z,5.62
2022-08-27T14:12:14.935Z,11.25
2022-08-27T14:12:49.697Z,11.25
2022-08-27T14:13:24.466Z,11.25
2022-08-27T14:13:59.216Z,11.25
2022-08-27T14:14:33.956Z,11.25
2022-08-27T14:15:08.717Z,11.25
2022-08-27T14:15:43.532Z,11.25
2022-08-27T14:16:18.309Z,11.25
2022-08-27T14:16:53.039Z,5.62
2022-08-27T14:17:29.599Z,5.62
2022-08-27T14:18:04.590Z,5.62
2022-08-27T14:19:18.920Z,5.62
2022-08-27T14:19:53.660Z,5.62
2022-08-27T14:20:28.399Z,5.62
2022-08-27T14:21:03.149Z,5.62
2022-08-27T14:21:37.920Z,5.62
2022-08-27T14:22:12.671Z,5.62
2022-08-27T14:22:47.442Z,5.62
2022-08-27T14:23:22.189Z,5.62
2022-08-27T14:23:56.936Z,5.62
2022-08-27T14:24:33.932Z,5.62
2022-08-27T14:25:08.720Z,5.62
2022-08-27T14:25:43.454Z,5.62
2022-08-27T14:26:18.391Z,5.62
2022-08-27T14:26:53.713Z,11.25
2022-08-27T14:27:28.536Z,11.25
2022-08-27T14:28:05.299Z,11.25
2022-08-27T14:28:40.085Z,11.25
2022-08-27T14:29:14.819Z,11.25
2022-08-27T14:29:49.573Z,11.25
2022-08-27T14:30:24.599Z,11.25
2022-08-27T14:31:03.996Z,11.25
2022-08-27T14:31:38.803Z,11.25
2022-08-27T14:32:15.097Z,11.25
2022-08-27T14:32:49.835Z,11.25
2022-08-27T14:33:29.446Z,11.25
2022-08-27T14:34:04.185Z,11.25
2022-08-27T14:34:38.936Z,11.25
2022-08-27T14:35:13.702Z,5.62
2022-08-27T14:35:53.306Z,5.62
2022-08-27T14:36:28.082Z,5.62
2022-08-27T14:37:02.836Z,5.62
2022-08-27T14:37:37.711Z,11.25
2022-08-27T14:38:12.961Z,11.25
2022-08-27T14:38:47.768Z,11.25
2022-08-27T14:39:26.059Z,5.62
2022-08-27T14:40:01.934Z,5.62
2022-08-27T14:40:36.788Z,5.62
2022-08-27T14:41:11.868Z,5.62
2022-08-27T14:41:46.612Z,5.62
2022-08-27T14:42:23.010Z,5.62
2022-08-27T14:42:58.418Z,5.62
2022-08-27T14:43:33.162Z,5.62
2022-08-27T14:44:07.910Z,5.62
2022-08-27T14:44:43.649Z,5.62
2022-08-27T14:45:18.419Z,5.62
2022-08-27T14:45:53.151Z,5.62
2022-08-27T14:46:27.986Z,5.62
2022-08-27T14:47:02.803Z,5.62
2022-08-27T14:47:38.603Z,5.62
2022-08-27T14:48:18.703Z,5.62
2022-08-27T14:48:52.961Z,5.62
2022-08-27T14:49:27.702Z,5.62
2022-08-27T14:50:02.466Z,5.62
2022-08-27T14:50:37.225Z,5.62
2022-08-27T14:51:12.206Z,5.62
2022-08-27T14:51:46.975Z,5.62
2022-08-27T14:52:21.714Z,5.62
2022-08-27T14:52:56.473Z,5.62
2022-08-27T14:53:31.222Z,11.25
2022-08-27T14:54:05.961Z,11.25
2022-08-27T14:54:40.697Z,11.25
2022-08-27T14:55:15.426Z,11.25
2022-08-27T14:55:51.828Z,11.25
2022-08-27T14:56:26.950Z,11.25
2022-08-27T14:57:01.686Z,11.25
2022-08-27T14:57:36.435Z,11.25
2022-08-27T14:58:11.524Z,11.25
2022-08-27T14:58:46.376Z,11.25
2022-08-27T14:59:21.155Z,11.25
2022-08-27T14:59:55.896Z,11.25
2022-08-27T15:00:30.649Z,11.25
2022-08-27T15:01:05.409Z,11.25
2022-08-27T15:01:40.208Z,11.25
2022-08-27T15:02:14.929Z,11.25
2022-08-27T15:02:49.670Z,16.88
2022-08-27T15:03:24.410Z,16.88
2022-08-27T15:03:59.153Z,16.88
2022-08-27T15:04:33.923Z,16.88
2022-08-27T15:05:11.815Z,16.88
2022-08-27T15:05:46.920Z,16.88
2022-08-27T15:06:23.722Z,16.88
2022-08-27T15:06:58.551Z,16.88
2022-08-27T15:07:33.307Z,16.88
2022-08-27T15:08:09.178Z,11.25
2022-08-27T15:08:47.742Z,11.25
2022-08-27T15:09:22.474Z,11.25
2022-08-27T15:09:57.212Z,11.25
2022-08-27T15:10:31.974Z,11.25
2022-08-27T15:11:06.713Z,11.25
2022-08-27T15:11:41.464Z,11.25
2022-08-27T15:12:25.678Z,11.25
2022-08-27T15:12:55.821Z,11.25
2022-08-27T15:13:30.554Z,11.25
2022-08-27T15:14:05.322Z,11.25
2022-08-27T15:14:40.080Z,11.25
2022-08-27T15:15:14.818Z,11.25
2022-08-27T15:15:49.729Z,11.25
2022-08-27T15:16:27.144Z,11.25
2022-08-27T15:17:01.915Z,11.25
2022-08-27T15:17:41.528Z,11.25
2022-08-27T15:18:16.596Z,11.25
2022-08-27T15:18:56.856Z,11.25
2022-08-27T15:19:31.326Z,11.25
2022-08-27T15:20:06.061Z,11.25
2022-08-27T15:20:40.815Z,11.25
2022-08-27T15:21:17.507Z,5.62
2022-08-27T15:21:52.316Z,5.62
2022-08-27T15:22:27.063Z,5.62
2022-08-27T15:23:01.807Z,5.62
2022-08-27T15:23:36.549Z,5.62
2022-08-27T15:24:11.289Z,5.62
2022-08-27T15:24:46.032Z,5.62
2022-08-27T15:25:20.802Z,5.62
2022-08-27T15:25:55.554Z,5.62
2022-08-27T15:26:30.289Z,5.62
2022-08-27T15:27:05.032Z,5.62
2022-08-27T15:27:39.776Z,5.62
2022-08-27T15:28:14.500Z,5.62
2022-08-27T15:28:50.578Z,5.62
2022-08-27T15:29:25.351Z,5.62
2022-08-27T15:30:00.148Z,5.62
2022-08-27T15:30:34.923Z,5.62
2022-08-27T15:31:09.751Z,5.62
2022-08-27T15:31:44.482Z,5.62
2022-08-27T15:32:19.244Z,5.62
2022-08-27T15:32:57.323Z,5.62
2022-08-27T15:33:32.102Z,5.62
2022-08-27T15:34:06.867Z,5.62
2022-08-27T15:34:41.603Z,5.62
2022-08-27T15:35:16.355Z,5.62
2022-08-27T15:35:51.315Z,5.62
2022-08-27T15:36:26.043Z,5.62
2022-08-27T15:37:00.797Z,5.62
2022-08-27T15:37:35.534Z,5.62
2022-08-27T15:38:10.314Z,5.62
2022-08-27T15:38:45.021Z,5.62
2022-08-27T15:39:19.759Z,5.62
2022-08-27T15:39:54.542Z,5.62
2022-08-27T15:40:29.337Z,5.62
2022-08-27T15:41:04.056Z,5.62
2022-08-27T15:41:51.024Z,0.00
2022-08-27T15:42:18.408Z,0.00
2022-08-27T15:42:53.147Z,0.00
2022-08-27T15:43:27.889Z,0.00
2022-08-27T15:44:02.618Z,0.00
2022-08-27T15:44:37.348Z,0.00
2022-08-27T15:45:12.103Z,0.00
2022-08-27T15:45:46.849Z,0.00
2022-08-27T15:46:21.671Z,0.00
2022-08-27T15:46:56.458Z,0.00
2022-08-27T15:47:31.241Z,0.00
2022-08-27T15:48:06.021Z,0.00
2022-08-27T15:48:40.728Z,0.00
2022-08-27T15:49:15.620Z,0.00
2022-08-27T15:49:50.361Z,5.62
2022-08-27T15:50:25.113Z,5.62
2022-08-27T15:50:59.861Z,5.62
2022-08-27T15:51:34.591Z,5.62
2022-08-27T15:52:09.322Z,5.62
2022-08-27T15:52:44.069Z,5.62
2022-08-27T15:53:18.801Z,5.62
2022-08-27T15:53:53.581Z,5.62
2022-08-27T15:54:28.516Z,5.62
2022-08-27T15:55:03.302Z,5.62
2022-08-27T15:55:38.073Z,5.62
2022-08-27T15:56:12.885Z,5.62
2022-08-27T15:56:49.495Z,5.62
2022-08-27T15:57:24.243Z,5.62
2022-08-27T15:57:58.982Z,5.62
2022-08-27T15:58:33.714Z,5.62
2022-08-27T15:59:08.455Z,5.62
2022-08-27T15:59:43.195Z,5.62
2022-08-27T16:00:17.951Z,5.62
2022-08-27T16:00:54.570Z,5.62
2022-08-27T16:01:32.389Z,5.62
2022-08-27T16:02:07.145Z,5.62
2022-08-27T16:02:41.913Z,5.62
2022-08-27T16:03:16.666Z,5.62
2022-08-27T16:03:51.428Z,5.62
2022-08-27T16:04:26.169Z,5.62
2022-08-27T16:05:00.908Z,5.62
2022-08-27T16:05:35.657Z,5.62
2022-08-27T16:06:10.527Z,5.62
2022-08-27T16:06:45.684Z,5.62
2022-08-27T16:07:21.303Z,5.62
2022-08-27T16:07:56.178Z,5.62
2022-08-27T16:08:30.909Z,5.62
2022-08-27T16:09:08.587Z,5.62
2022-08-27T16:09:43.319Z,5.62
2022-08-27T16:10:18.079Z,5.62
2022-08-27T16:10:52.821Z,5.62
2022-08-27T16:11:27.613Z,5.62
2022-08-27T16:12:02.350Z,5.62
2022-08-27T16:12:37.174Z,5.62
2022-08-27T16:13:12.013Z,5.62
2022-08-27T16:13:46.780Z,5.62
2022-08-27T16:14:21.603Z,5.62
2022-08-27T16:14:56.349Z,5.62
2022-08-27T16:15:31.200Z,5.62
2022-08-27T16:16:05.989Z,5.62
2022-08-27T16:16:41.945Z,5.62
2022-08-27T16:17:16.871Z,5.62
2022-08-27T16:17:51.633Z,5.62
2022-08-27T16:18:26.380Z,0.00
2022-08-27T16:19:01.253Z,0.00
2022-08-27T16:19:36.004Z,0.00
2022-08-27T16:20:10.755Z,0.00
2022-08-27T16:20:45.513Z,0.00
2022-08-27T16:21:20.265Z,0.00
2022-08-27T16:21:55.018Z,0.00
2022-08-27T16:22:29.765Z,0.00
2022-08-27T16:23:04.531Z,0.00
2022-08-27T16:23:39.237Z,0.00
2022-08-27T16:24:14.077Z,0.00
2022-08-27T16:24:48.888Z,0.00
2022-08-27T16:25:23.649Z,0.00
2022-08-27T16:25:58.408Z,0.00
2022-08-27T16:26:33.167Z,0.00
2022-08-27T16:27:08.037Z,0.00
2022-08-27T16:27:42.805Z,0.00
2022-08-27T16:28:17.558Z,0.00
2022-08-27T16:28:52.308Z,0.00
2022-08-27T16:29:27.060Z,0.00
2022-08-27T16:30:01.937Z,0.00
2022-08-27T16:30:36.823Z,0.00
2022-08-27T16:31:11.627Z,0.00
2022-08-27T16:31:47.024Z,0.00
2022-08-27T16:32:25.847Z,0.00
2022-08-27T16:33:01.859Z,0.00
2022-08-27T16:33:37.814Z,0.00
2022-08-27T16:34:16.312Z,0.00
2022-08-27T16:34:55.758Z,0.00
2022-08-27T16:35:30.760Z,0.00
2022-08-27T16:36:05.550Z,0.00
2022-08-27T16:36:40.288Z,0.00
2022-08-27T16:37:15.074Z,0.00
2022-08-27T16:37:50.707Z,0.00
2022-08-27T16:38:25.507Z,0.00
2022-08-27T16:39:00.264Z,0.00
2022-08-27T16:39:39.978Z,0.00
2022-08-27T16:40:14.761Z,0.00
2022-08-27T16:40:49.524Z,0.00
2022-08-27T16:41:24.573Z,0.00
2022-08-27T16:41:59.350Z,0.00
2022-08-27T16:42:34.198Z,0.00
2022-08-27T16:43:08.952Z,0.00
2022-08-27T16:43:43.684Z,0.00
2022-08-27T16:44:18.440Z,0.00
2022-08-27T16:44:53.225Z,0.00
2022-08-27T16:45:27.975Z,0.00
2022-08-27T16:46:02.751Z,0.00
2022-08-27T16:46:37.569Z,0.00
2022-08-27T16:47:12.346Z,0.00
2022-08-27T16:47:47.090Z,0.00
2022-08-27T16:48:21.827Z,0.00
2022-08-27T16:49:01.260Z,0.00
2022-08-27T16:49:37.164Z,0.00
2022-08-27T16:50:11.866Z,0.00
2022-08-27T16:50:51.500Z,0.00
2022-08-27T16:51:26.242Z,0.00
2022-08-27T16:52:00.979Z,0.00
2022-08-27T16:52:35.758Z,0.00
2022-08-27T16:53:10.540Z,0.00
2022-08-27T16:53:45.362Z,0.00
2022-08-27T16:54:20.127Z,0.00
2022-08-27T16:54:54.897Z,0.00
2022-08-27T16:55:29.653Z,0.00
2022-08-27T16:56:04.580Z,0.00
2022-08-27T16:56:39.310Z,0.00
2022-08-27T16:57:14.078Z,0.00
2022-08-27T16:57:48.829Z,0.00
2022-08-27T16:58:23.591Z,0.00
2022-08-27T16:58:58.353Z,0.00
2022-08-27T16:59:33.095Z,0.00
2022-08-27T17:00:07.857Z,0.00
2022-08-27T17:00:42.702Z,0.00
2022-08-27T17:01:17.464Z,0.00
2022-08-27T17:01:52.272Z,0.00
2022-08-27T17:02:30.328Z,0.00
2022-08-27T17:03:06.705Z,0.00
2022-08-27T17:04:06.796Z,0.00
2022-08-27T17:04:30.253Z,0.00
2022-08-27T17:05:17.406Z,0.00
2022-08-27T17:05:40.898Z,0.00
2022-08-27T17:06:15.875Z,0.00
2022-08-27T17:06:52.897Z,0.00
2022-08-27T17:07:27.726Z,0.00
2022-08-27T17:08:02.915Z,0.00
2022-08-27T17:08:45.781Z,0.00
2022-08-27T17:09:17.388Z,0.00
2022-08-27T17:09:52.281Z,0.00
2022-08-27T17:10:29.373Z,0.00
2022-08-27T17:11:04.145Z,0.00
2022-08-27T17:11:38.908Z,0.00
2022-08-27T17:12:13.659Z,0.00
2022-08-27T17:12:50.448Z,0.00
2022-08-27T17:13:28.324Z,0.00
2022-08-27T17:14:03.351Z,0.00
2022-08-27T17:14:38.185Z,0.00
2022-08-27T17:15:13.038Z,0.00
2022-08-27T17:15:52.074Z,0.00
2022-08-27T17:16:27.665Z,0.00
2022-08-27T17:17:02.472Z,0.00
2022-08-27T17:17:37.262Z,0.00
2022-08-27T17:18:12.139Z,0.00
2022-08-27T17:18:47.589Z,0.00
2022-08-27T17:19:22.550Z,0.00
2022-08-27T17:19:57.449Z,0.00
2022-08-27T17:20:32.256Z,0.00
2022-08-27T17:21:07.041Z,0.00
2022-08-27T17:21:41.836Z,0.00
2022-08-27T17:22:20.142Z,0.00
2022-08-27T17:22:54.974Z,0.00
2022-08-27T17:23:30.027Z,0.00
2022-08-27T17:24:04.812Z,0.00
2022-08-27T17:24:44.427Z,0.00
2022-08-27T17:25:19.923Z,0.00
2022-08-27T17:25:54.725Z,0.00
2022-08-27T17:26:30.866Z,0.00
2022-08-27T17:27:05.615Z,0.00
2022-08-27T17:27:40.395Z,0.00
2022-08-27T17:28:15.558Z,0.00
2022-08-27T17:28:50.357Z,0.00
2022-08-27T17:29:25.116Z,0.00
2022-08-27T17:29:59.907Z,0.00
2022-08-27T17:30:34.745Z,0.00
2022-08-27T17:31:09.550Z,0.00
2022-08-27T17:31:44.316Z,0.00
2022-08-27T17:32:19.069Z,0.00
2022-08-27T17:32:53.818Z,0.00
2022-08-27T17:33:28.609Z,0.00
2022-08-27T17:34:03.394Z,0.00
2022-08-27T17:34:38.156Z,0.00
2022-08-27T17:35:12.954Z,0.00
2022-08-27T17:35:47.772Z,0.00
2022-08-27T17:36:22.569Z,0.00
2022-08-27T17:37:01.600Z,0.00
2022-08-27T17:37:36.438Z,0.00
2022-08-27T17:38:11.357Z,0.00
2022-08-27T17:38:46.167Z,0.00
2022-08-27T17:39:20.962Z,0.00
2022-08-27T17:39:55.779Z,0.00
2022-08-27T17:40:30.647Z,0.00
2022-08-27T17:41:05.440Z,0.00
2022-08-27T17:41:40.203Z,0.00
2022-08-27T17:42:15.043Z,0.00
2022-08-27T17:42:49.875Z,0.00
2022-08-27T17:43:24.701Z,0.00
2022-08-27T17:43:59.533Z,0.00
2022-08-27T17:44:34.261Z,0.00
2022-08-27T17:45:09.044Z,0.00
2022-08-27T17:45:43.970Z,0.00
2022-08-27T17:46:18.808Z,0.00
2022-08-27T17:46:53.853Z,0.00
2022-08-27T17:47:28.602Z,0.00
2022-08-27T17:48:06.044Z,0.00
2022-08-27T17:48:43.172Z,0.00
2022-08-27T17:49:17.945Z,0.00
2022-08-27T17:49:52.704Z,0.00
2022-08-27T17:50:27.585Z,0.00
2022-08-27T17:51:02.410Z,0.00
2022-08-27T17:51:37.191Z,0.00
2022-08-27T17:52:11.936Z,0.00
2022-08-27T17:52:46.706Z,0.00
2022-08-27T17:53:21.476Z,0.00
2022-08-27T17:54:00.648Z,0.00
2022-08-27T17:54:35.882Z,0.00
2022-08-27T17:55:10.662Z,0.00
2022-08-27T17:55:45.528Z,0.00
2022-08-27T17:56:20.287Z,0.00
2022-08-27T17:56:55.043Z,0.00
2022-08-27T17:57:29.797Z,0.00
2022-08-27T17:58:09.402Z,0.00
2022-08-27T17:58:44.211Z,0.00
2022-08-27T17:59:20.400Z,0.00
2022-08-27T17:59:55.212Z,0.00
2022-08-27T18:00:29.986Z,0.00
2022-08-27T18:01:05.045Z,0.00
2022-08-27T18:01:44.597Z,0.00
2022-08-27T18:02:19.478Z,0.00
2022-08-27T18:02:55.432Z,0.00
2022-08-27T18:03:31.328Z,0.00
2022-08-27T18:04:11.148Z,0.00
2022-08-27T18:04:45.980Z,0.00
2022-08-27T18:05:20.805Z,0.00
2022-08-27T18:05:55.655Z,0.00
2022-08-27T18:06:30.444Z,0.00
2022-08-27T18:07:05.242Z,0.00
2022-08-27T18:07:40.246Z,0.00
2022-08-27T18:08:15.023Z,0.00
2022-08-27T18:08:49.832Z,0.00
2022-08-27T18:09:24.726Z,0.00
2022-08-27T18:09:59.487Z,0.00
2022-08-27T18:10:35.157Z,0.00
2022-08-27T18:11:10.015Z,0.00
2022-08-27T18:11:44.813Z,0.00
2022-08-27T18:12:19.624Z,0.00
2022-08-27T18:12:54.404Z,0.00
2022-08-27T18:13:29.248Z,0.00
2022-08-27T18:14:05.075Z,0.00
2022-08-27T18:14:39.880Z,0.00
2022-08-27T18:15:14.705Z,0.00
2022-08-27T18:15:49.479Z,0.00
2022-08-27T18:16:24.414Z,0.00
2022-08-27T18:16:59.216Z,0.00
2022-08-27T18:17:34.673Z,0.00
2022-08-27T18:18:10.707Z,0.00
2022-08-27T18:18:45.534Z,0.00
2022-08-27T18:19:20.289Z,0.00
2022-08-27T18:19:55.090Z,0.00